Time;durP1;ratioP1;P1;durP2;ratioP2;P2;SDS_P1;SDS_P2;PMS_P1;PMS_P2;Temp;Humidity;BMP_temperature;BMP_pressure;BME280_temperature;BME280_humidity;BME280_pressure;Samples;Min_cycle;Max_cycle;Signal;HPM_P1;HPM_P2
2023/05/10 00:01:14;;;;;;;;;;;;;;;22.05;52.81;98927.25;7315408;19;129043;-37
2023/05/10 00:03:40;;;;;;;;;;;;;;;22.17;52.75;98941.69;7314668;19;129381;-39
2023/05/10 00:06:05;;;;;;;;;;;;;;;22.18;52.83;98945.13;7315559;19;129619;-38
2023/05/10 00:08:30;;;;;;;;;;;;;;;22.18;52.98;98932.03;7316128;19;128977;-41
2023/05/10 00:10:56;;;;;;;;;;;;;;;22.18;53.21;98945.94;7315402;19;129197;-39
2023/05/10 00:13:21;;;;;;;;;;;;;;;22.18;52.76;98945.94;7315102;19;129482;-37
2023/05/10 00:15:46;;;;;;;;;;;;;;;21.48;50.81;98915.69;7315999;19;129708;-38
2023/05/10 00:18:11;;;;;;;;;;;;;;;21.09;49.95;98919.66;7315976;19;128856;-37
2023/05/10 00:20:37;;;;;;;;;;;;;;;21.12;50.41;98942.88;7316548;19;129415;-39
2023/05/10 00:23:02;;;;;;;;;;;;;;;21.47;53.42;98926.31;7312841;19;129489;-39
2023/05/10 00:25:27;;;;;;;;;;;;;;;21.75;53.01;98935.63;7314581;19;129227;-37
2023/05/10 00:27:55;;;;;;;;;;;;;;;21.86;52.73;98941.41;7315539;19;128894;-38
2023/05/10 00:30:20;;;;;;;;;;;;;;;21.95;53.32;98932.59;7309500;19;128954;-37
2023/05/10 00:32:45;;;;;;;;;;;;;;;22.03;53.25;98926.59;7308578;19;129437;-39
2023/05/10 00:35:10;;;;;;;;;;;;;;;21.97;53.36;98906.28;7313088;19;130700;-39
2023/05/10 00:37:36;;;;;;;;;;;;;;;22.12;53.01;98927.41;7313991;19;129074;-37
2023/05/10 00:40:01;;;;;;;;;;;;;;;22.06;53.24;98901.88;7315403;19;128992;-38
2023/05/10 00:42:26;;;;;;;;;;;;;;;22.16;53.36;98918.28;7315386;19;129702;-38
2023/05/10 00:44:51;;;;;;;;;;;;;;;22.15;52.98;98920.06;7315015;19;129653;-39
2023/05/10 00:47:17;;;;;;;;;;;;;;;22.15;53.02;98914.84;7314249;19;130383;-40
2023/05/10 00:49:43;;;;;;;;;;;;;;;22.06;53.54;98912.38;7315230;19;128795;-39
2023/05/10 00:52:08;;;;;;;;;;;;;;;22.16;53.23;98915.66;7310094;19;129861;-37
2023/05/10 00:54:34;;;;;;;;;;;;;;;22.17;53.36;98909.44;7313032;19;130526;-41
2023/05/10 00:56:59;;;;;;;;;;;;;;;22.16;53.48;98907.81;7314068;19;129687;-37
2023/05/10 00:59:24;;;;;;;;;;;;;;;22.15;53.50;98909.59;7314227;19;129240;-39
2023/05/10 01:01:51;;;;;;;;;;;;;;;21.89;51.55;98914.09;7316009;19;129249;-38
2023/05/10 01:04:16;;;;;;;;;;;;;;;21.07;50.31;98898.13;7311529;19;131793;-38
2023/05/10 01:06:42;;;;;;;;;;;;;;;21.17;50.54;98909.25;7311555;19;130489;-40
2023/05/10 01:09:07;;;;;;;;;;;;;;;21.44;53.04;98909.13;7311875;19;128927;-37
2023/05/10 01:11:33;;;;;;;;;;;;;;;21.69;52.91;98904.81;7313362;19;130190;-39
2023/05/10 01:13:59;;;;;;;;;;;;;;;21.71;53.03;98889.78;7310830;19;129594;-39
2023/05/10 01:16:25;;;;;;;;;;;;;;;21.93;52.85;98907.59;7313456;19;128635;-42
2023/05/10 01:18:51;;;;;;;;;;;;;;;22.02;52.83;98905.78;7314078;19;129290;-41
2023/05/10 01:21:16;;;;;;;;;;;;;;;22.09;53.01;98906.81;7313357;19;129196;-40
2023/05/10 01:24:09;;;;;;;;;;;;;;;22.10;52.79;98904.03;7312570;19;130473;-37
2023/05/10 01:26:43;;;;;;;;;;;;;;;22.15;52.60;98900.94;7309043;19;129639;-39
2023/05/10 01:29:17;;;;;;;;;;;;;;;22.19;52.82;98902.25;7312953;19;129842;-40
2023/05/10 01:31:57;;;;;;;;;;;;;;;22.20;52.83;98898.63;7313251;19;129167;-44
2023/05/10 01:34:30;;;;;;;;;;;;;;;22.20;53.19;98893.41;7310867;19;129687;-41
2023/05/10 01:37:04;;;;;;;;;;;;;;;22.19;53.34;98902.25;7313225;19;129711;-38
2023/05/10 01:39:57;;;;;;;;;;;;;;;22.14;53.04;98891.44;7313290;19;131007;-39
2023/05/10 01:42:25;;;;;;;;;;;;;;;22.15;53.50;98895.72;7313241;19;129337;-38
2023/05/10 01:44:59;;;;;;;;;;;;;;;22.16;53.17;98887.69;7314148;19;129120;-38
2023/05/10 01:47:37;;;;;;;;;;;;;;;22.17;52.87;98889.31;7312334;19;129430;-38
2023/05/10 01:50:03;;;;;;;;;;;;;;;21.86;51.20;98891.69;7313439;19;129535;-38
2023/05/10 01:52:34;;;;;;;;;;;;;;;21.15;50.21;98900.78;7310437;19;130516;-38
2023/05/10 01:55:06;;;;;;;;;;;;;;;21.06;50.76;98896.47;7313256;19;130400;-40
2023/05/10 01:57:32;;;;;;;;;;;;;;;21.43;53.00;98894.41;7312850;19;128898;-38
2023/05/10 01:59:59;;;;;;;;;;;;;;;21.72;52.62;98894.88;7312340;19;131616;-38
2023/05/10 02:02:25;;;;;;;;;;;;;;;21.86;53.40;98896.94;7313050;19;130137;-38
2023/05/10 02:04:53;;;;;;;;;;;;;;;21.96;52.74;98896.78;7312453;19;130499;-39
2023/05/10 02:07:18;;;;;;;;;;;;;;;22.05;53.30;98889.78;7311691;19;129061;-38
2023/05/10 02:09:47;;;;;;;;;;;;;;;22.09;52.72;98891.09;7312077;19;129279;-40
2023/05/10 02:12:13;;;;;;;;;;;;;;;22.12;53.27;98883.75;7311671;19;129546;-37
2023/05/10 02:14:40;;;;;;;;;;;;;;;22.15;52.77;98890.47;7313544;19;130880;-39
2023/05/10 02:17:07;;;;;;;;;;;;;;;22.02;53.07;98864.75;7313028;19;128953;-38
2023/05/10 02:19:34;;;;;;;;;;;;;;;22.16;52.98;98882.47;7310617;19;129377;-38
2023/05/10 02:22:00;;;;;;;;;;;;;;;22.17;52.92;98878.03;7312095;19;129501;-37
2023/05/10 02:24:26;;;;;;;;;;;;;;;22.17;52.81;98880.63;7306310;19;129709;-39
2023/05/10 02:26:53;;;;;;;;;;;;;;;22.18;52.79;98874.44;7312296;19;129057;-38
2023/05/10 02:29:19;;;;;;;;;;;;;;;22.15;52.77;98870.31;7310626;19;129592;-41
2023/05/10 02:31:45;;;;;;;;;;;;;;;22.18;53.37;98875.25;7310872;19;130072;-37
2023/05/10 02:34:11;;;;;;;;;;;;;;;22.19;53.52;98876.06;7309709;19;130334;-37
2023/05/10 02:36:38;;;;;;;;;;;;;;;22.19;53.11;98881.31;7311253;19;129440;-38
2023/05/10 02:39:04;;;;;;;;;;;;;;;21.46;50.62;98875.78;7307198;19;129312;-39
2023/05/10 02:41:30;;;;;;;;;;;;;;;21.07;49.94;98855.47;7311774;19;129384;-39
2023/05/10 02:43:59;;;;;;;;;;;;;;;21.21;49.65;98874.03;7309231;19;129293;-41
2023/05/10 02:46:24;;;;;;;;;;;;;;;21.62;52.61;98888.94;7312506;19;128999;-38
2023/05/10 02:48:50;;;;;;;;;;;;;;;21.62;52.52;98854.94;7311038;19;128807;-40
2023/05/10 02:51:17;;;;;;;;;;;;;;;21.89;53.40;98883.53;7310727;19;129967;-37
2023/05/10 02:53:44;;;;;;;;;;;;;;;21.95;53.10;98869.78;7311863;19;130377;-39
2023/05/10 02:56:13;;;;;;;;;;;;;;;22.08;53.11;98871.16;7310191;19;130477;-36
2023/05/10 02:58:38;;;;;;;;;;;;;;;22.12;52.77;98877.69;7311493;19;128956;-38
2023/05/10 03:01:03;;;;;;;;;;;;;;;22.15;52.85;98869.53;7311337;19;129595;-38
2023/05/10 03:03:29;;;;;;;;;;;;;;;22.16;53.14;98873.78;7310725;19;129263;-38
2023/05/10 03:05:55;;;;;;;;;;;;;;;22.14;52.94;98873.09;7305857;19;128903;-39
2023/05/10 03:08:21;;;;;;;;;;;;;;;22.17;52.92;98878.84;7310338;19;128984;-39
2023/05/10 03:11:03;;;;;;;;;;;;;;;22.20;53.28;98885.53;7309311;19;129837;-39
2023/05/10 03:13:36;;;;;;;;;;;;;;;22.19;53.01;98870.84;7310710;19;129408;-41
2023/05/10 03:16:07;;;;;;;;;;;;;;;22.16;53.07;98873.78;7309327;19;129064;-39
2023/05/10 03:18:32;;;;;;;;;;;;;;;22.08;52.85;98856.22;7311291;19;129408;-39
2023/05/10 03:21:02;;;;;;;;;;;;;;;22.16;52.90;98871.16;7310351;19;129978;-38
2023/05/10 03:23:33;;;;;;;;;;;;;;;22.18;52.81;98879.69;7309228;19;130788;-40
2023/05/10 03:25:59;;;;;;;;;;;;;;;21.69;50.45;98879.50;7309910;19;128920;-44
2023/05/10 03:28:25;;;;;;;;;;;;;;;21.16;50.67;98865.81;7311326;19;128960;-38
2023/05/10 03:30:52;;;;;;;;;;;;;;;21.15;50.77;98866.81;7310441;19;129589;-40
2023/05/10 03:33:17;;;;;;;;;;;;;;;21.47;53.38;98880.03;7315597;19;129427;-36
2023/05/10 03:35:45;;;;;;;;;;;;;;;21.74;52.58;98872.00;7315938;19;130876;-39
2023/05/10 03:38:10;;;;;;;;;;;;;;;21.89;52.76;98867.81;7316801;19;128904;-40
2023/05/10 03:40:36;;;;;;;;;;;;;;;22.00;52.80;98873.75;7316241;19;129372;-38
2023/05/10 03:43:01;;;;;;;;;;;;;;;22.05;52.49;98867.03;7316743;19;130466;-39
2023/05/10 03:45:26;;;;;;;;;;;;;;;22.10;53.21;98861.34;7316447;19;129139;-39
2023/05/10 03:47:51;;;;;;;;;;;;;;;22.13;53.20;98861.00;7316999;19;129828;-40
2023/05/10 03:50:18;;;;;;;;;;;;;;;22.02;53.16;98853.44;7316286;19;129637;-38
2023/05/10 03:52:44;;;;;;;;;;;;;;;22.04;53.03;98848.88;7314844;19;131573;-39
2023/05/10 03:55:09;;;;;;;;;;;;;;;22.18;53.04;98874.44;7316889;19;129266;-38
2023/05/10 03:57:35;;;;;;;;;;;;;;;22.18;52.90;98879.69;7316577;19;129638;-38
2023/05/10 04:00:00;;;;;;;;;;;;;;;22.19;53.23;98878.69;7316533;19;130022;-39
2023/05/10 04:02:25;;;;;;;;;;;;;;;22.19;53.02;98881.31;7316528;19;130282;-38
2023/05/10 04:04:51;;;;;;;;;;;;;;;22.18;53.18;98882.28;7317085;19;129137;-39
2023/05/10 04:07:16;;;;;;;;;;;;;;;22.18;53.35;98885.72;7312653;19;129312;-40
2023/05/10 04:09:41;;;;;;;;;;;;;;;22.20;52.98;98893.41;7315025;19;129232;-39
2023/05/10 04:12:07;;;;;;;;;;;;;;;21.95;50.92;98880.25;7306148;19;129378;-43
2023/05/10 04:14:32;;;;;;;;;;;;;;;21.22;50.18;98885.31;7310208;19;130880;-38
2023/05/10 04:16:57;;;;;;;;;;;;;;;21.12;49.81;98895.84;7308484;19;130179;-38
2023/05/10 04:19:22;;;;;;;;;;;;;;;21.41;52.80;98893.75;7307998;19;129935;-40
2023/05/10 04:21:48;;;;;;;;;;;;;;;21.57;52.76;98859.81;7307899;19;129379;-38
2023/05/10 04:24:13;;;;;;;;;;;;;;;21.87;53.11;98880.25;7310716;19;128970;-39
2023/05/10 04:26:38;;;;;;;;;;;;;;;21.94;53.57;98881.25;7308697;19;130339;-37
2023/05/10 04:29:03;;;;;;;;;;;;;;;21.93;52.94;98866.50;7310799;19;130412;-37
2023/05/10 04:31:29;;;;;;;;;;;;;;;22.08;53.13;98874.56;7313284;19;130181;-42
2023/05/10 04:33:54;;;;;;;;;;;;;;;22.11;53.31;98883.91;7311822;19;129173;-38
2023/05/10 04:36:19;;;;;;;;;;;;;;;22.14;53.09;98873.09;7314041;19;130140;-37
2023/05/10 04:38:45;;;;;;;;;;;;;;;22.17;53.31;98880.63;7313590;19;129580;-39
2023/05/10 04:41:10;;;;;;;;;;;;;;;22.21;53.01;98881.97;7312309;19;129644;-37
2023/05/10 04:43:36;;;;;;;;;;;;;;;22.22;52.92;98873.94;7313665;19;129425;-40
2023/05/10 04:46:02;;;;;;;;;;;;;;;22.24;52.83;98876.41;7312948;19;128820;-39
2023/05/10 04:48:27;;;;;;;;;;;;;;;22.09;52.87;98844.81;7310892;19;131049;-39
2023/05/10 04:50:53;;;;;;;;;;;;;;;22.19;52.86;98857.75;7313427;19;130633;-38
2023/05/10 04:53:18;;;;;;;;;;;;;;;22.19;52.90;98858.56;7306097;19;130774;-41
2023/05/10 04:55:43;;;;;;;;;;;;;;;22.19;52.94;98858.56;7306358;19;129990;-38
2023/05/10 04:58:08;;;;;;;;;;;;;;;21.67;50.80;98878.81;7308257;19;130543;-40
2023/05/10 05:00:34;;;;;;;;;;;;;;;21.20;50.54;98877.63;7308109;19;131769;-39
2023/05/10 05:02:59;;;;;;;;;;;;;;;21.13;50.15;98878.38;7309729;19;129315;-39
2023/05/10 05:05:25;;;;;;;;;;;;;;;21.50;52.68;98865.84;7311065;19;128945;-39
2023/05/10 05:07:50;;;;;;;;;;;;;;;21.64;52.70;98837.28;7312986;19;129673;-40
2023/05/10 05:10:15;;;;;;;;;;;;;;;21.89;52.87;98865.22;7314065;19;129630;-38
2023/05/10 05:12:41;;;;;;;;;;;;;;;21.98;52.95;98873.06;7309252;19;129169;-41
2023/05/10 05:15:08;;;;;;;;;;;;;;;22.06;53.58;98867.88;7309703;19;129812;-38
2023/05/10 05:17:33;;;;;;;;;;;;;;;22.11;52.63;98870.81;7308421;19;130396;-40
2023/05/10 05:19:58;;;;;;;;;;;;;;;22.15;53.27;98877.38;7305305;19;129521;-39
2023/05/10 05:22:29;;;;;;;;;;;;;;;22.17;53.25;98867.53;7305677;19;130264;-39
2023/05/10 05:24:55;;;;;;;;;;;;;;;22.20;53.29;98880.31;7308188;19;130316;-39
2023/05/10 05:27:23;;;;;;;;;;;;;;;22.20;53.42;98868.03;7310604;19;129204;-39
2023/05/10 05:29:49;;;;;;;;;;;;;;;21.61;49.53;98876.84;7314785;19;130635;-40
2023/05/10 05:32:14;;;;;;;;;;;;;;;21.20;50.42;98867.16;7308726;19;129101;-37
2023/05/10 05:34:39;;;;;;;;;;;;;;;21.16;49.89;98862.38;7313775;19;129871;-40
2023/05/10 05:37:04;;;;;;;;;;;;;;;21.19;49.96;98865.50;7311909;19;129846;-40
2023/05/10 05:39:29;;;;;;;;;;;;;;;21.21;49.06;98863.56;7309557;19;130297;-39
2023/05/10 05:41:55;;;;;;;;;;;;;;;21.08;49.69;98850.09;7312704;19;129404;-39
2023/05/10 05:44:20;;;;;;;;;;;;;;;21.24;48.76;98863.25;7310206;19;128921;-39
2023/05/10 05:46:45;;;;;;;;;;;;;;;21.08;49.42;98839.63;7309101;19;129227;-39
2023/05/10 05:49:10;;;;;;;;;;;;;;;21.26;49.00;98871.75;7309992;19;129814;-40
2023/05/10 05:51:36;;;;;;;;;;;;;;;21.30;48.91;98867.03;7309279;19;129811;-39
2023/05/10 05:54:01;;;;;;;;;;;;;;;21.30;48.90;98865.25;7308241;19;129498;-39
2023/05/10 05:56:26;;;;;;;;;;;;;;;21.29;48.55;98871.44;7312434;19;130749;-40
2023/05/10 05:58:52;;;;;;;;;;;;;;;21.32;48.73;98867.72;7313264;19;130256;-40
2023/05/10 06:01:17;;;;;;;;;;;;;;;21.23;48.64;98859.00;7312154;19;129886;-39
2023/05/10 06:03:42;;;;;;;;;;;;;;;21.20;48.34;98851.47;7311543;19;129453;-39
2023/05/10 06:06:07;;;;;;;;;;;;;;;21.27;48.40;98862.94;7312363;19;130315;-40
2023/05/10 06:08:33;;;;;;;;;;;;;;;21.35;48.38;98876.06;7312756;19;129432;-39
2023/05/10 06:10:59;;;;;;;;;;;;;;;21.34;47.99;98863.97;7312304;19;128890;-39
2023/05/10 06:13:24;;;;;;;;;;;;;;;21.36;47.83;98874.25;7310574;19;128997;-40
2023/05/10 06:15:49;;;;;;;;;;;;;;;21.38;47.69;98877.53;7312023;19;130884;-39
2023/05/10 06:18:15;;;;;;;;;;;;;;;21.38;47.62;98867.91;7313292;19;132250;-40
2023/05/10 06:20:41;;;;;;;;;;;;;;;21.38;48.05;98878.38;7312542;19;128827;-39
2023/05/10 06:23:06;;;;;;;;;;;;;;;21.35;48.07;98883.91;7306772;19;129397;-40
2023/05/10 06:25:31;;;;;;;;;;;;;;;21.39;48.30;98881.78;7310695;19;129489;-39
2023/05/10 06:27:57;;;;;;;;;;;;;;;21.37;47.96;98884.56;7312482;19;129715;-39
2023/05/10 06:30:27;;;;;;;;;;;;;;;21.41;47.36;98885.91;7311802;19;128824;-39
2023/05/10 06:32:52;;;;;;;;;;;;;;;21.39;47.68;98893.06;7310047;19;129555;-40
2023/05/10 06:35:17;;;;;;;;;;;;;;;21.43;47.33;98878.72;7312669;19;129166;-39
2023/05/10 06:37:42;;;;;;;;;;;;;;;21.39;47.33;98880.00;7311453;19;130445;-40
2023/05/10 06:40:09;;;;;;;;;;;;;;;21.43;47.64;98886.56;7312643;19;129128;-39
2023/05/10 06:42:34;;;;;;;;;;;;;;;21.38;47.48;98873.16;7310669;19;129267;-39
2023/05/10 06:44:59;;;;;;;;;;;;;;;21.41;47.73;98890.31;7311966;19;130072;-40
2023/05/10 06:47:24;;;;;;;;;;;;;;;21.43;47.36;98893.59;7310394;19;129568;-39
2023/05/10 06:49:49;;;;;;;;;;;;;;;21.41;47.96;98885.06;7312195;19;129442;-39
2023/05/10 06:52:15;;;;;;;;;;;;;;;21.42;47.74;98891.97;7310974;19;129777;-39
2023/05/10 06:54:40;;;;;;;;;;;;;;;21.42;47.70;98897.19;7310753;19;131207;-39
2023/05/10 06:57:06;;;;;;;;;;;;;;;21.48;47.45;98880.88;7303211;19;130158;-40
2023/05/10 06:59:31;;;;;;;;;;;;;;;21.45;47.47;98881.19;7312268;19;129227;-39
2023/05/10 07:01:56;;;;;;;;;;;;;;;21.36;46.89;98862.00;7309949;19;129567;-39
2023/05/10 07:04:21;;;;;;;;;;;;;;;21.49;46.93;98888.56;7309390;19;130196;-39
2023/05/10 07:06:47;;;;;;;;;;;;;;;21.48;47.31;98886.91;7314114;19;129623;-39
2023/05/10 07:09:13;;;;;;;;;;;;;;;21.52;46.86;98888.22;7317778;19;128929;-39
2023/05/10 07:11:38;;;;;;;;;;;;;;;21.49;46.89;98883.31;7318664;19;128809;-39
2023/05/10 07:14:03;;;;;;;;;;;;;;;21.49;47.42;98885.94;7315529;19;129729;-38
2023/05/10 07:16:29;;;;;;;;;;;;;;;21.48;47.45;98881.69;7315097;19;131469;-39
2023/05/10 07:18:54;;;;;;;;;;;;;;;21.48;46.85;98888.72;7318304;19;128847;-38
2023/05/10 07:21:19;;;;;;;;;;;;;;;21.47;47.42;98895.72;7317478;19;128948;-39
2023/05/10 07:23:45;;;;;;;;;;;;;;;21.49;46.99;98893.78;7315435;19;131202;-39
2023/05/10 07:26:10;;;;;;;;;;;;;;;21.46;46.90;98899.31;7317045;19;129828;-39
2023/05/10 07:28:37;;;;;;;;;;;;;;;21.49;47.39;98892.94;7317490;19;129031;-39
2023/05/10 07:31:02;;;;;;;;;;;;;;;21.53;46.88;98900.34;7316726;19;129452;-39
2023/05/10 07:33:27;;;;;;;;;;;;;;;21.50;46.84;98884.16;7315346;19;130272;-39
2023/05/10 07:35:53;;;;;;;;;;;;;;;21.55;46.99;98893.16;7314762;19;129195;-39
2023/05/10 07:38:18;;;;;;;;;;;;;;;21.59;46.80;98893.66;7318488;19;128760;-39
2023/05/10 07:40:43;;;;;;;;;;;;;;;21.41;46.65;98869.38;7317632;19;129478;-40
2023/05/10 07:43:08;;;;;;;;;;;;;;;21.55;46.98;98895.75;7314717;19;130126;-39
2023/05/10 07:45:34;;;;;;;;;;;;;;;21.55;46.78;98903.59;7316063;19;130410;-38
2023/05/10 07:47:59;;;;;;;;;;;;;;;21.53;46.72;98889.06;7318164;19;128946;-39
2023/05/10 07:50:24;;;;;;;;;;;;;;;21.61;47.03;98892.53;7316728;19;129261;-39
2023/05/10 07:52:50;;;;;;;;;;;;;;;21.53;47.15;98887.28;7312252;19;130657;-39
2023/05/10 07:55:15;;;;;;;;;;;;;;;21.58;46.54;98903.31;7309508;19;131322;-39
2023/05/10 07:57:41;;;;;;;;;;;;;;;21.57;46.78;98890.38;7315599;19;129535;-39
2023/05/10 08:00:07;;;;;;;;;;;;;;;21.57;46.43;98888.59;7317225;19;129456;-40
2023/05/10 08:02:33;;;;;;;;;;;;;;;21.59;46.45;98889.25;7314124;19;131222;-39
2023/05/10 08:04:58;;;;;;;;;;;;;;;21.57;47.05;98890.38;7317146;19;129753;-39
2023/05/10 08:07:24;;;;;;;;;;;;;;;21.59;46.64;98902.34;7315401;19;129600;-40
2023/05/10 08:09:49;;;;;;;;;;;;;;;21.56;46.66;98893.97;7316655;19;129024;-39
2023/05/10 08:12:15;;;;;;;;;;;;;;;21.57;46.99;98896.44;7315998;19;129187;-39
2023/05/10 08:14:40;;;;;;;;;;;;;;;21.58;46.57;98897.25;7315795;19;130540;-40
2023/05/10 08:17:05;;;;;;;;;;;;;;;21.58;47.05;98892.88;7314415;19;128840;-39
2023/05/10 08:19:30;;;;;;;;;;;;;;;21.60;46.39;98903.97;7315946;19;128907;-39
2023/05/10 08:21:56;;;;;;;;;;;;;;;21.62;46.74;98894.16;7317483;19;130636;-39
2023/05/10 08:24:22;;;;;;;;;;;;;;;21.47;46.88;98869.56;7314337;19;129221;-39
2023/05/10 08:26:47;;;;;;;;;;;;;;;21.55;46.09;98882.69;7314584;19;128839;-39
2023/05/10 08:29:13;;;;;;;;;;;;;;;21.61;46.65;98889.94;7315094;19;129584;-39
2023/05/10 08:31:38;;;;;;;;;;;;;;;21.62;46.44;98894.16;7316666;19;130081;-38
2023/05/10 08:34:03;;;;;;;;;;;;;;;21.59;46.21;98907.56;7314067;19;129597;-38
2023/05/10 08:36:28;;;;;;;;;;;;;;;21.60;46.94;98903.97;7313276;19;129158;-39
2023/05/10 08:38:54;;;;;;;;;;;;;;;21.58;46.95;98903.31;7316237;19;129065;-41
2023/05/10 08:41:20;;;;;;;;;;;;;;;21.62;46.71;98904.63;7312350;19;130254;-38
2023/05/10 08:43:46;;;;;;;;;;;;;;;21.62;47.03;98919.50;7314808;19;130524;-41
2023/05/10 08:46:15;;;;;;;;;;;;;;;21.46;46.32;98888.03;7313496;19;128902;-38
2023/05/10 08:48:40;;;;;;;;;;;;;;;21.63;46.07;98915.94;7315931;19;129147;-40
2023/05/10 08:51:08;;;;;;;;;;;;;;;21.64;46.66;98917.56;7315547;19;129151;-39
2023/05/10 08:53:36;;;;;;;;;;;;;;;21.60;46.79;98906.56;7312498;19;130351;-37
2023/05/10 08:56:01;;;;;;;;;;;;;;;21.57;46.22;98912.13;7314434;19;129133;-39
2023/05/10 08:58:27;;;;;;;;;;;;;;;21.62;46.82;98922.94;7314066;19;129015;-40
2023/05/10 09:00:52;;;;;;;;;;;;;;;21.63;46.77;98929.84;7314504;19;130190;-39
2023/05/10 09:03:17;;;;;;;;;;;;;;;21.64;46.32;98921.00;7313979;19;130389;-38
2023/05/10 09:05:44;;;;;;;;;;;;;;;21.66;46.45;98926.91;7313162;19;129266;-40
2023/05/10 09:08:10;;;;;;;;;;;;;;;21.64;46.60;98938.47;7314116;19;128945;-38
2023/05/10 09:10:36;;;;;;;;;;;;;;;21.65;46.51;98945.38;7315197;19;130152;-40
2023/05/10 09:13:02;;;;;;;;;;;;;;;21.54;46.56;98927.31;7313618;19;129664;-39
2023/05/10 09:15:27;;;;;;;;;;;;;;;21.49;46.01;98925.16;7314030;19;129314;-39
2023/05/10 09:17:54;;;;;;;;;;;;;;;21.66;45.93;98953.06;7314299;19;129057;-40
2023/05/10 09:20:20;;;;;;;;;;;;;;;21.63;46.30;98942.91;7315225;19;129407;-40
2023/05/10 09:22:45;;;;;;;;;;;;;;;21.68;46.12;98945.84;7312970;19;130209;-38
2023/05/10 09:25:11;;;;;;;;;;;;;;;21.52;46.08;98914.38;7313891;19;130342;-38
2023/05/10 09:27:37;;;;;;;;;;;;;;;21.52;46.08;98926.63;7312805;19;130152;-40
2023/05/10 09:30:03;;;;;;;;;;;;;;;21.66;46.24;98939.97;7312507;19;129384;-40
2023/05/10 09:32:42;;;;;;;;;;;;;;;21.65;46.08;98934.91;7310821;19;130351;-42
2023/05/10 09:35:15;;;;;;;;;;;;;;;21.66;45.92;98941.78;7313520;19;128902;-44
2023/05/10 09:37:41;;;;;;;;;;;;;;;21.69;46.38;98942.28;7313297;19;129424;-38
2023/05/10 09:40:07;;;;;;;;;;;;;;;21.68;45.81;98945.84;7314411;19;130355;-41
2023/05/10 09:42:33;;;;;;;;;;;;;;;21.67;46.56;98949.47;7313409;19;129189;-39
2023/05/10 09:45:02;;;;;;;;;;;;;;;21.71;46.04;98944.72;7313779;19;129136;-39
2023/05/10 09:47:27;;;;;;;;;;;;;;;21.67;45.91;98961.72;7312794;19;130474;-42
2023/05/10 09:49:53;;;;;;;;;;;;;;;21.70;46.38;98950.97;7314339;19;129513;-39
2023/05/10 09:52:18;;;;;;;;;;;;;;;21.76;46.46;98947.72;7312943;19;130976;-38
2023/05/10 09:54:53;;;;;;;;;;;;;;;21.71;45.66;98953.41;7313691;19;128918;-38
2023/05/10 09:57:22;;;;;;;;;;;;;;;21.68;46.00;98945.84;7313015;19;128840;-39
2023/05/10 09:59:48;;;;;;;;;;;;;;;21.69;46.56;98947.50;7313994;19;129932;-38
2023/05/10 10:02:13;;;;;;;;;;;;;;;21.69;46.46;98947.50;7313991;19;130330;-40
2023/05/10 10:04:39;;;;;;;;;;;;;;;21.70;46.38;98953.56;7312558;19;129477;-38
2023/05/10 10:07:05;;;;;;;;;;;;;;;21.54;45.83;98922.06;7310275;19;129301;-39
2023/05/10 10:09:30;;;;;;;;;;;;;;;21.71;45.91;98945.56;7312862;19;130704;-38
2023/05/10 10:11:56;;;;;;;;;;;;;;;21.71;46.38;98939.50;7313578;19;129545;-38
2023/05/10 10:14:23;;;;;;;;;;;;;;;21.74;46.30;98947.88;7310634;19;129694;-39
2023/05/10 10:16:49;;;;;;;;;;;;;;;21.73;46.23;98946.22;7312707;19;129301;-38
2023/05/10 10:19:14;;;;;;;;;;;;;;;21.70;46.21;98928.22;7313383;19;129677;-39
2023/05/10 10:21:40;;;;;;;;;;;;;;;21.72;45.92;98939.34;7308566;19;130877;-39
2023/05/10 10:24:05;;;;;;;;;;;;;;;21.70;45.73;98943.91;7309446;19;128828;-41
2023/05/10 10:26:33;;;;;;;;;;;;;;;21.57;46.20;98916.53;7312595;19;129515;-39
2023/05/10 10:29:17;;;;;;;;;;;;;;;21.68;45.98;98945.84;7312949;19;130191;-38
2023/05/10 10:32:06;;;;;;;;;;;;;;;21.72;45.85;98939.34;7312991;19;130249;-37
2023/05/10 10:34:31;;;;;;;;;;;;;;;21.59;45.83;98925.88;7306661;19;130153;-39
2023/05/10 10:36:57;;;;;;;;;;;;;;;21.70;45.86;98932.66;7312892;19;128952;-36
2023/05/10 10:39:24;;;;;;;;;;;;;;;21.71;45.95;98942.94;7312680;19;130054;-38
2023/05/10 10:41:54;;;;;;;;;;;;;;;21.76;46.25;98943.34;7313578;19;130434;-41
2023/05/10 10:44:23;;;;;;;;;;;;;;;21.73;46.35;98933.13;7316699;19;129600;-39
2023/05/10 10:47:23;;;;;;;;;;;;;;;21.73;45.68;98948.03;7318882;19;129130;-40
2023/05/10 10:49:54;;;;;;;;;;;;;;;21.74;46.08;98950.47;7318541;19;129156;-39
2023/05/10 10:52:26;;;;;;;;;;;;;;;21.78;45.82;98946.59;7318797;19;130631;-37
2023/05/10 10:54:52;;;;;;;;;;;;;;;21.74;45.59;98950.47;7318171;19;129134;-38
2023/05/10 10:57:18;;;;;;;;;;;;;;;21.73;45.81;98954.06;7318539;19;129564;-39
2023/05/10 10:59:44;;;;;;;;;;;;;;;21.74;46.04;98960.94;7315347;19;130549;-39
2023/05/10 11:02:10;;;;;;;;;;;;;;;21.73;45.98;98948.81;7319182;19;129155;-39
2023/05/10 11:04:42;;;;;;;;;;;;;;;21.77;46.20;98952.81;7317888;19;130062;-41
2023/05/10 11:07:17;;;;;;;;;;;;;;;21.73;46.16;98942.78;7317687;19;129105;-38
2023/05/10 11:09:42;;;;;;;;;;;;;;;21.80;45.98;98942.03;7317537;19;130161;-38
2023/05/10 11:12:08;;;;;;;;;;;;;;;21.78;45.65;98935.31;7318516;19;129287;-38
2023/05/10 11:14:34;;;;;;;;;;;;;;;21.75;46.21;98952.09;7318316;19;129659;-39
2023/05/10 11:17:00;;;;;;;;;;;;;;;21.77;45.75;98944.13;7318056;19;130594;-38
2023/05/10 11:19:27;;;;;;;;;;;;;;;21.80;46.20;98939.41;7316235;19;130278;-38
2023/05/10 11:22:05;;;;;;;;;;;;;;;21.80;45.81;98944.66;7319314;19;130437;-39
2023/05/10 11:24:30;;;;;;;;;;;;;;;21.75;45.56;98936.41;7315186;19;129656;-37
2023/05/10 11:26:56;;;;;;;;;;;;;;;21.78;45.46;98936.13;7318022;19;129099;-37
2023/05/10 11:29:21;;;;;;;;;;;;;;;21.79;45.52;98944.81;7317200;19;131072;-37
2023/05/10 11:31:47;;;;;;;;;;;;;;;21.78;46.09;98946.59;7318881;19;130427;-39
2023/05/10 11:34:30;;;;;;;;;;;;;;;21.81;45.33;98941.06;7315766;19;128818;-38
2023/05/10 11:36:55;;;;;;;;;;;;;;;21.84;45.42;98945.97;7316250;19;129361;-40
2023/05/10 11:39:21;;;;;;;;;;;;;;;21.75;45.41;98946.88;7317681;19;129032;-38
2023/05/10 11:41:50;;;;;;;;;;;;;;;21.80;45.57;98944.66;7315271;19;130985;-39
2023/05/10 11:44:15;;;;;;;;;;;;;;;21.78;45.56;98946.59;7315994;19;128916;-39
2023/05/10 11:46:40;;;;;;;;;;;;;;;21.68;45.51;98934.59;7317107;19;128875;-37
2023/05/10 11:49:07;;;;;;;;;;;;;;;21.79;45.46;98950.88;7317642;19;129439;-39
2023/05/10 11:51:35;;;;;;;;;;;;;;;21.81;45.35;98962.00;7314601;19;129474;-38
2023/05/10 11:54:04;;;;;;;;;;;;;;;21.77;46.04;98938.91;7315036;19;129215;-41
2023/05/10 11:56:32;;;;;;;;;;;;;;;21.88;45.95;98955.16;7312407;19;130598;-38
2023/05/10 11:58:57;;;;;;;;;;;;;;;21.80;46.01;98949.88;7316803;19;129347;-40
2023/05/10 12:01:23;;;;;;;;;;;;;;;21.74;46.15;98937.41;7317146;19;130511;-38
2023/05/10 12:03:50;;;;;;;;;;;;;;;21.78;45.36;98957.06;7312702;19;128812;-39
2023/05/10 12:06:16;;;;;;;;;;;;;;;21.72;45.66;98955.03;7316649;19;129239;-37
2023/05/10 12:08:44;;;;;;;;;;;;;;;21.80;45.97;98960.34;7317108;19;130262;-38
2023/05/10 12:11:15;;;;;;;;;;;;;;;21.80;45.94;98955.09;7316564;19;129357;-40
2023/05/10 12:13:41;;;;;;;;;;;;;;;21.80;45.54;98960.34;7315413;19;129079;-39
2023/05/10 12:16:13;;;;;;;;;;;;;;;21.81;45.67;98956.78;7316034;19;129549;-38
2023/05/10 12:18:39;;;;;;;;;;;;;;;21.86;45.20;98954.50;7315388;19;130357;-37
2023/05/10 12:21:04;;;;;;;;;;;;;;;21.73;45.77;98951.44;7317527;19;129752;-38
2023/05/10 12:23:30;;;;;;;;;;;;;;;21.83;45.95;98956.63;7314220;19;129847;-41
2023/05/10 12:26:01;;;;;;;;;;;;;;;21.82;45.70;98961.00;7315451;19;128826;-39
2023/05/10 12:28:29;;;;;;;;;;;;;;;21.83;45.37;98960.03;7315700;19;130233;-38
2023/05/10 12:30:54;;;;;;;;;;;;;;;21.81;45.65;98961.16;7315566;19;130962;-40
2023/05/10 12:33:20;;;;;;;;;;;;;;;21.83;45.42;98964.47;7314809;19;129164;-38